sensor_id;sensor_type;location;lat;lon;timestamp;temperature;humidity
61916;DHT22;47868;51.326;6.550;2022-11-04T00:01:40;11.60;99.90
61916;DHT22;47868;51.326;6.550;2022-11-04T00:04:06;11.50;99.90
61916;DHT22;47868;51.326;6.550;2022-11-04T00:06:32;11.50;99.90
61916;DHT22;47868;51.326;6.550;2022-11-04T00:08:58;11.50;99.90
61916;DHT22;47868;51.326;6.550;2022-11-04T00:11:26;11.50;99.90
61916;DHT22;47868;51.326;6.550;2022-11-04T00:14:11;11.50;99.90
61916;DHT22;47868;51.326;6.550;2022-11-04T00:16:38;11.50;99.90
61916;DHT22;47868;51.326;6.550;2022-11-04T00:19:22;11.50;99.90
61916;DHT22;47868;51.326;6.550;2022-11-04T00:21:48;11.50;99.90
61916;DHT22;47868;51.326;6.550;2022-11-04T00:24:32;11.40;99.90
61916;DHT22;47868;51.326;6.550;2022-11-04T00:27:15;11.50;99.90
61916;DHT22;47868;51.326;6.550;2022-11-04T00:30:00;11.50;99.90
61916;DHT22;47868;51.326;6.550;2022-11-04T00:32:26;11.50;99.90
61916;DHT22;47868;51.326;6.550;2022-11-04T00:35:11;11.50;99.90
61916;DHT22;47868;51.326;6.550;2022-11-04T00:37:38;11.50;99.90
61916;DHT22;47868;51.326;6.550;2022-11-04T00:40:05;11.50;99.90
61916;DHT22;47868;51.326;6.550;2022-11-04T00:42:32;11.50;99.90
61916;DHT22;47868;51.326;6.550;2022-11-04T00:44:57;11.50;99.90
61916;DHT22;47868;51.326;6.550;2022-11-04T00:47:23;11.50;99.90
61916;DHT22;47868;51.326;6.550;2022-11-04T00:49:49;11.50;99.90
61916;DHT22;47868;51.326;6.550;2022-11-04T00:52:14;11.50;99.90
61916;DHT22;47868;51.326;6.550;2022-11-04T00:54:40;11.60;99.90
61916;DHT22;47868;51.326;6.550;2022-11-04T00:57:08;11.60;99.90
61916;DHT22;47868;51.326;6.550;2022-11-04T00:59:34;11.50;99.90
61916;DHT22;47868;51.326;6.550;2022-11-04T01:02:00;11.50;99.90
61916;DHT22;47868;51.326;6.550;2022-11-04T01:04:26;11.50;99.90
61916;DHT22;47868;51.326;6.550;2022-11-04T01:06:51;11.50;99.90
61916;DHT22;47868;51.326;6.550;2022-11-04T01:09:17;11.40;99.90
61916;DHT22;47868;51.326;6.550;2022-11-04T01:11:43;11.40;99.90
61916;DHT22;47868;51.326;6.550;2022-11-04T01:14:09;11.30;99.90
61916;DHT22;47868;51.326;6.550;2022-11-04T01:16:35;11.30;99.90
61916;DHT22;47868;51.326;6.550;2022-11-04T01:19:01;11.30;99.90
61916;DHT22;47868;51.326;6.550;2022-11-04T01:21:27;11.30;99.90
61916;DHT22;47868;51.326;6.550;2022-11-04T01:23:52;11.30;99.90
61916;DHT22;47868;51.326;6.550;2022-11-04T01:26:20;11.20;99.90
61916;DHT22;47868;51.326;6.550;2022-11-04T01:28:46;11.20;99.90
61916;DHT22;47868;51.326;6.550;2022-11-04T01:31:17;10.50;99.90
61916;DHT22;47868;51.326;6.550;2022-11-04T01:33:45;11.20;99.90
61916;DHT22;47868;51.326;6.550;2022-11-04T01:36:11;11.30;99.90
61916;DHT22;47868;51.326;6.550;2022-11-04T01:38:37;11.30;99.90
61916;DHT22;47868;51.326;6.550;2022-11-04T01:41:03;11.20;99.90
61916;DHT22;47868;51.326;6.550;2022-11-04T01:49:36;11.10;99.90
61916;DHT22;47868;51.326;6.550;2022-11-04T01:52:17;11.10;99.90
61916;DHT22;47868;51.326;6.550;2022-11-04T01:54:46;11.00;99.90
61916;DHT22;47868;51.326;6.550;2022-11-04T01:57:18;11.00;99.90
61916;DHT22;47868;51.326;6.550;2022-11-04T01:59:47;11.00;99.90
61916;DHT22;47868;51.326;6.550;2022-11-04T02:02:12;10.90;99.90
61916;DHT22;47868;51.326;6.550;2022-11-04T02:04:39;10.90;99.90
61916;DHT22;47868;51.326;6.550;2022-11-04T02:07:07;10.80;99.90
61916;DHT22;47868;51.326;6.550;2022-11-04T02:09:37;10.90;99.90
61916;DHT22;47868;51.326;6.550;2022-11-04T02:12:04;10.90;99.90
61916;DHT22;47868;51.326;6.550;2022-11-04T02:14:49;10.90;99.90
61916;DHT22;47868;51.326;6.550;2022-11-04T02:31:10;10.70;99.90
61916;DHT22;47868;51.326;6.550;2022-11-04T02:33:40;10.70;99.90
61916;DHT22;47868;51.326;6.550;2022-11-04T02:38:59;10.70;99.90
61916;DHT22;47868;51.326;6.550;2022-11-04T02:42:03;11.00;99.90
61916;DHT22;47868;51.326;6.550;2022-11-04T02:44:34;10.60;99.90
61916;DHT22;47868;51.326;6.550;2022-11-04T02:47:09;10.60;99.90
61916;DHT22;47868;51.326;6.550;2022-11-04T02:49:41;10.60;99.90
61916;DHT22;47868;51.326;6.550;2022-11-04T02:52:11;10.60;99.90
61916;DHT22;47868;51.326;6.550;2022-11-04T02:54:58;10.50;99.90
61916;DHT22;47868;51.326;6.550;2022-11-04T02:57:28;10.50;99.90
61916;DHT22;47868;51.326;6.550;2022-11-04T02:59:56;10.50;99.90
61916;DHT22;47868;51.326;6.550;2022-11-04T03:02:32;10.50;99.90
61916;DHT22;47868;51.326;6.550;2022-11-04T03:05:01;10.50;99.90
61916;DHT22;47868;51.326;6.550;2022-11-04T03:07:32;10.50;99.90
61916;DHT22;47868;51.326;6.550;2022-11-04T03:10:01;10.50;99.90
61916;DHT22;47868;51.326;6.550;2022-11-04T03:12:38;10.40;99.90
61916;DHT22;47868;51.326;6.550;2022-11-04T03:15:11;10.40;99.90
61916;DHT22;47868;51.326;6.550;2022-11-04T03:17:51;10.40;99.90
61916;DHT22;47868;51.326;6.550;2022-11-04T03:20:24;10.30;99.90
61916;DHT22;47868;51.326;6.550;2022-11-04T03:22:53;10.30;99.90
61916;DHT22;47868;51.326;6.550;2022-11-04T03:25:27;10.30;99.90
61916;DHT22;47868;51.326;6.550;2022-11-04T03:28:04;10.30;99.90
61916;DHT22;47868;51.326;6.550;2022-11-04T03:30:41;10.30;99.90
61916;DHT22;47868;51.326;6.550;2022-11-04T03:33:32;10.30;99.90
61916;DHT22;47868;51.326;6.550;2022-11-04T03:35:58;10.20;99.90
61916;DHT22;47868;51.326;6.550;2022-11-04T03:38:24;10.20;99.90
61916;DHT22;47868;51.326;6.550;2022-11-04T03:40:50;10.20;99.90
61916;DHT22;47868;51.326;6.550;2022-11-04T03:43:24;10.30;99.90
61916;DHT22;47868;51.326;6.550;2022-11-04T03:45:53;10.30;99.90
61916;DHT22;47868;51.326;6.550;2022-11-04T03:48:18;10.30;99.90
61916;DHT22;47868;51.326;6.550;2022-11-04T03:50:46;10.30;99.90
61916;DHT22;47868;51.326;6.550;2022-11-04T03:53:14;10.40;99.90
61916;DHT22;47868;51.326;6.550;2022-11-04T03:58:49;10.40;99.90
61916;DHT22;47868;51.326;6.550;2022-11-04T04:04:37;10.30;99.90
61916;DHT22;47868;51.326;6.550;2022-11-04T04:09:47;10.20;99.90
61916;DHT22;47868;51.326;6.550;2022-11-04T04:12:33;10.10;99.90
61916;DHT22;47868;51.326;6.550;2022-11-04T04:15:13;10.10;99.90
61916;DHT22;47868;51.326;6.550;2022-11-04T04:17:46;10.10;99.90
61916;DHT22;47868;51.326;6.550;2022-11-04T04:20:21;10.10;99.90
61916;DHT22;47868;51.326;6.550;2022-11-04T04:23:07;10.10;99.90
61916;DHT22;47868;51.326;6.550;2022-11-04T04:25:54;10.00;99.90
61916;DHT22;47868;51.326;6.550;2022-11-04T04:28:40;10.10;99.90
61916;DHT22;47868;51.326;6.550;2022-11-04T04:31:08;10.10;99.90
61916;DHT22;47868;51.326;6.550;2022-11-04T04:33:36;10.10;99.90
61916;DHT22;47868;51.326;6.550;2022-11-04T04:36:04;10.00;99.90
61916;DHT22;47868;51.326;6.550;2022-11-04T04:38:32;10.10;99.90
61916;DHT22;47868;51.326;6.550;2022-11-04T04:41:22;10.10;99.90
61916;DHT22;47868;51.326;6.550;2022-11-04T04:44:14;10.10;99.90
61916;DHT22;47868;51.326;6.550;2022-11-04T04:47:00;10.10;99.90
61916;DHT22;47868;51.326;6.550;2022-11-04T04:49:26;10.10;99.90
61916;DHT22;47868;51.326;6.550;2022-11-04T04:52:00;10.10;99.90
61916;DHT22;47868;51.326;6.550;2022-11-04T04:54:26;10.10;99.90
61916;DHT22;47868;51.326;6.550;2022-11-04T04:56:52;10.10;99.90
61916;DHT22;47868;51.326;6.550;2022-11-04T04:59:17;10.10;99.90
61916;DHT22;47868;51.326;6.550;2022-11-04T05:01:43;10.10;99.90
61916;DHT22;47868;51.326;6.550;2022-11-04T05:04:09;10.10;99.90
61916;DHT22;47868;51.326;6.550;2022-11-04T05:06:34;10.00;99.90
61916;DHT22;47868;51.326;6.550;2022-11-04T05:09:00;10.00;99.90
61916;DHT22;47868;51.326;6.550;2022-11-04T05:11:26;10.00;99.90
61916;DHT22;47868;51.326;6.550;2022-11-04T05:13:51;10.00;99.90
61916;DHT22;47868;51.326;6.550;2022-11-04T05:16:17;10.00;99.90
61916;DHT22;47868;51.326;6.550;2022-11-04T05:18:43;10.00;99.90
61916;DHT22;47868;51.326;6.550;2022-11-04T05:21:12;10.00;99.90
61916;DHT22;47868;51.326;6.550;2022-11-04T05:23:38;10.00;99.90
61916;DHT22;47868;51.326;6.550;2022-11-04T05:26:04;9.90;99.90
61916;DHT22;47868;51.326;6.550;2022-11-04T05:28:31;10.00;99.90
61916;DHT22;47868;51.326;6.550;2022-11-04T05:30:57;10.00;99.90
61916;DHT22;47868;51.326;6.550;2022-11-04T05:33:22;10.00;99.90
61916;DHT22;47868;51.326;6.550;2022-11-04T05:35:48;10.10;99.90
61916;DHT22;47868;51.326;6.550;2022-11-04T05:38:13;10.10;99.90
61916;DHT22;47868;51.326;6.550;2022-11-04T05:40:39;10.10;99.90
61916;DHT22;47868;51.326;6.550;2022-11-04T05:43:05;10.00;99.90
61916;DHT22;47868;51.326;6.550;2022-11-04T05:45:30;10.00;99.90
61916;DHT22;47868;51.326;6.550;2022-11-04T05:48:00;10.00;99.90
61916;DHT22;47868;51.326;6.550;2022-11-04T05:50:26;10.00;99.90
61916;DHT22;47868;51.326;6.550;2022-11-04T05:52:52;10.10;99.90
61916;DHT22;47868;51.326;6.550;2022-11-04T05:55:18;10.10;99.90
61916;DHT22;47868;51.326;6.550;2022-11-04T05:57:44;10.00;99.90
61916;DHT22;47868;51.326;6.550;2022-11-04T06:00:10;10.00;99.90
61916;DHT22;47868;51.326;6.550;2022-11-04T06:02:35;9.90;99.90
61916;DHT22;47868;51.326;6.550;2022-11-04T06:05:01;9.80;99.90
61916;DHT22;47868;51.326;6.550;2022-11-04T06:07:27;9.90;99.90
61916;DHT22;47868;51.326;6.550;2022-11-04T06:09:52;10.00;99.90
61916;DHT22;47868;51.326;6.550;2022-11-04T06:12:18;10.00;99.90
61916;DHT22;47868;51.326;6.550;2022-11-04T06:14:44;10.00;99.90
61916;DHT22;47868;51.326;6.550;2022-11-04T06:17:17;10.00;99.90
61916;DHT22;47868;51.326;6.550;2022-11-04T06:19:43;10.00;99.90
61916;DHT22;47868;51.326;6.550;2022-11-04T06:22:14;10.00;99.90
61916;DHT22;47868;51.326;6.550;2022-11-04T06:24:40;10.00;99.90
61916;DHT22;47868;51.326;6.550;2022-11-04T06:27:06;10.00;99.90
61916;DHT22;47868;51.326;6.550;2022-11-04T06:29:32;10.00;99.90
61916;DHT22;47868;51.326;6.550;2022-11-04T06:31:58;10.00;99.90
61916;DHT22;47868;51.326;6.550;2022-11-04T06:34:24;10.00;99.90
61916;DHT22;47868;51.326;6.550;2022-11-04T06:36:50;10.10;99.90
61916;DHT22;47868;51.326;6.550;2022-11-04T06:39:16;10.10;99.90
61916;DHT22;47868;51.326;6.550;2022-11-04T06:41:41;10.20;99.90
61916;DHT22;47868;51.326;6.550;2022-11-04T06:44:07;10.20;99.90
61916;DHT22;47868;51.326;6.550;2022-11-04T06:46:38;10.30;99.90
61916;DHT22;47868;51.326;6.550;2022-11-04T06:49:05;10.30;99.90
61916;DHT22;47868;51.326;6.550;2022-11-04T06:51:32;10.30;99.90
61916;DHT22;47868;51.326;6.550;2022-11-04T06:53:58;10.30;99.90
61916;DHT22;47868;51.326;6.550;2022-11-04T06:56:24;10.30;99.90
61916;DHT22;47868;51.326;6.550;2022-11-04T06:58:51;10.30;99.90
61916;DHT22;47868;51.326;6.550;2022-11-04T07:01:18;10.30;99.90
61916;DHT22;47868;51.326;6.550;2022-11-04T07:15:53;10.50;99.90
61916;DHT22;47868;51.326;6.550;2022-11-04T07:18:19;10.50;99.90
61916;DHT22;47868;51.326;6.550;2022-11-04T07:20:45;10.60;99.90
61916;DHT22;47868;51.326;6.550;2022-11-04T07:23:11;10.60;99.90
61916;DHT22;47868;51.326;6.550;2022-11-04T07:25:37;10.60;99.90
61916;DHT22;47868;51.326;6.550;2022-11-04T07:28:02;10.60;99.90
61916;DHT22;47868;51.326;6.550;2022-11-04T07:30:28;10.70;99.90
61916;DHT22;47868;51.326;6.550;2022-11-04T07:32:54;10.70;99.90
61916;DHT22;47868;51.326;6.550;2022-11-04T07:35:19;10.70;99.90
61916;DHT22;47868;51.326;6.550;2022-11-04T07:37:45;10.70;99.90
61916;DHT22;47868;51.326;6.550;2022-11-04T07:40:11;10.70;99.90
61916;DHT22;47868;51.326;6.550;2022-11-04T07:42:36;10.80;99.90
61916;DHT22;47868;51.326;6.550;2022-11-04T07:45:02;10.80;99.90
61916;DHT22;47868;51.326;6.550;2022-11-04T07:47:29;10.80;99.90
61916;DHT22;47868;51.326;6.550;2022-11-04T07:49:55;10.90;99.90
61916;DHT22;47868;51.326;6.550;2022-11-04T07:52:21;10.90;99.90
61916;DHT22;47868;51.326;6.550;2022-11-04T07:54:46;10.90;99.90
61916;DHT22;47868;51.326;6.550;2022-11-04T07:57:12;10.90;99.90
61916;DHT22;47868;51.326;6.550;2022-11-04T07:59:38;10.90;99.90
61916;DHT22;47868;51.326;6.550;2022-11-04T08:02:04;10.90;99.90
61916;DHT22;47868;51.326;6.550;2022-11-04T08:04:30;10.90;99.90
61916;DHT22;47868;51.326;6.550;2022-11-04T08:06:55;11.00;99.90
61916;DHT22;47868;51.326;6.550;2022-11-04T08:09:21;11.10;99.90
61916;DHT22;47868;51.326;6.550;2022-11-04T08:11:47;11.10;99.90
61916;DHT22;47868;51.326;6.550;2022-11-04T08:14:13;11.10;99.90
61916;DHT22;47868;51.326;6.550;2022-11-04T08:16:39;11.20;99.90
61916;DHT22;47868;51.326;6.550;2022-11-04T08:19:05;11.20;99.90
61916;DHT22;47868;51.326;6.550;2022-11-04T08:21:32;11.20;99.90
61916;DHT22;47868;51.326;6.550;2022-11-04T08:23:57;11.20;99.90
61916;DHT22;47868;51.326;6.550;2022-11-04T08:26:23;11.30;99.90
61916;DHT22;47868;51.326;6.550;2022-11-04T08:28:50;11.30;99.90
61916;DHT22;47868;51.326;6.550;2022-11-04T08:31:22;11.40;99.90
61916;DHT22;47868;51.326;6.550;2022-11-04T08:33:49;11.50;99.90
61916;DHT22;47868;51.326;6.550;2022-11-04T08:36:24;11.50;99.90
61916;DHT22;47868;51.326;6.550;2022-11-04T08:38:50;11.60;99.90
61916;DHT22;47868;51.326;6.550;2022-11-04T08:41:20;11.60;99.90
61916;DHT22;47868;51.326;6.550;2022-11-04T08:43:46;11.70;99.90
61916;DHT22;47868;51.326;6.550;2022-11-04T08:46:13;11.70;99.90
61916;DHT22;47868;51.326;6.550;2022-11-04T08:48:40;11.80;99.90
61916;DHT22;47868;51.326;6.550;2022-11-04T08:51:14;11.90;99.90
61916;DHT22;47868;51.326;6.550;2022-11-04T08:53:40;11.90;99.90
61916;DHT22;47868;51.326;6.550;2022-11-04T08:56:11;12.00;99.90
61916;DHT22;47868;51.326;6.550;2022-11-04T08:58:37;12.00;99.90
61916;DHT22;47868;51.326;6.550;2022-11-04T09:01:04;12.10;99.90
61916;DHT22;47868;51.326;6.550;2022-11-04T09:03:31;12.20;99.90
61916;DHT22;47868;51.326;6.550;2022-11-04T09:05:59;12.30;99.90
61916;DHT22;47868;51.326;6.550;2022-11-04T09:08:25;12.30;99.90
61916;DHT22;47868;51.326;6.550;2022-11-04T09:10:50;12.40;99.90
61916;DHT22;47868;51.326;6.550;2022-11-04T09:13:16;12.50;99.90
61916;DHT22;47868;51.326;6.550;2022-11-04T09:15:42;12.60;99.90
61916;DHT22;47868;51.326;6.550;2022-11-04T09:18:08;12.60;99.90
61916;DHT22;47868;51.326;6.550;2022-11-04T09:20:34;12.70;99.90
61916;DHT22;47868;51.326;6.550;2022-11-04T09:23:03;12.80;99.90
61916;DHT22;47868;51.326;6.550;2022-11-04T09:25:28;12.90;99.90
61916;DHT22;47868;51.326;6.550;2022-11-04T09:27:54;13.00;99.90
61916;DHT22;47868;51.326;6.550;2022-11-04T09:30:20;12.90;99.90
61916;DHT22;47868;51.326;6.550;2022-11-04T09:32:45;13.00;99.90
61916;DHT22;47868;51.326;6.550;2022-11-04T09:35:11;13.00;99.90
61916;DHT22;47868;51.326;6.550;2022-11-04T09:37:37;13.00;99.90
61916;DHT22;47868;51.326;6.550;2022-11-04T09:40:03;13.10;99.90
61916;DHT22;47868;51.326;6.550;2022-11-04T09:45:25;13.10;99.90
61916;DHT22;47868;51.326;6.550;2022-11-04T09:47:54;13.10;99.90
61916;DHT22;47868;51.326;6.550;2022-11-04T09:50:27;13.00;99.90
61916;DHT22;47868;51.326;6.550;2022-11-04T09:52:58;12.80;99.90
61916;DHT22;47868;51.326;6.550;2022-11-04T09:55:45;12.80;99.90
61916;DHT22;47868;51.326;6.550;2022-11-04T09:58:13;12.60;99.90
61916;DHT22;47868;51.326;6.550;2022-11-04T10:00:40;12.50;99.90
61916;DHT22;47868;51.326;6.550;2022-11-04T10:09:13;12.80;99.90
61916;DHT22;47868;51.326;6.550;2022-11-04T10:17:05;13.10;99.90
61916;DHT22;47868;51.326;6.550;2022-11-04T10:25:22;13.20;99.90
61916;DHT22;47868;51.326;6.550;2022-11-04T10:27:50;13.40;99.90
61916;DHT22;47868;51.326;6.550;2022-11-04T10:30:23;13.70;99.90
61916;DHT22;47868;51.326;6.550;2022-11-04T10:33:00;13.90;99.90
61916;DHT22;47868;51.326;6.550;2022-11-04T10:35:29;14.10;99.90
61916;DHT22;47868;51.326;6.550;2022-11-04T10:37:58;14.20;99.90
61916;DHT22;47868;51.326;6.550;2022-11-04T10:40:30;14.30;99.90
61916;DHT22;47868;51.326;6.550;2022-11-04T10:42:58;14.40;99.90
61916;DHT22;47868;51.326;6.550;2022-11-04T10:45:32;14.30;99.90
61916;DHT22;47868;51.326;6.550;2022-11-04T10:48:10;14.30;99.90
61916;DHT22;47868;51.326;6.550;2022-11-04T10:50:41;14.10;99.90
61916;DHT22;47868;51.326;6.550;2022-11-04T10:53:18;14.00;99.90
61916;DHT22;47868;51.326;6.550;2022-11-04T10:55:46;14.00;99.90
61916;DHT22;47868;51.326;6.550;2022-11-04T10:58:19;14.00;99.90
61916;DHT22;47868;51.326;6.550;2022-11-04T11:00:46;14.10;99.90
61916;DHT22;47868;51.326;6.550;2022-11-04T11:03:38;14.20;99.90
61916;DHT22;47868;51.326;6.550;2022-11-04T11:08:48;14.30;99.90
61916;DHT22;47868;51.326;6.550;2022-11-04T11:11:14;14.30;99.90
61916;DHT22;47868;51.326;6.550;2022-11-04T11:13:44;14.20;99.90
61916;DHT22;47868;51.326;6.550;2022-11-04T11:16:19;14.10;99.90
61916;DHT22;47868;51.326;6.550;2022-11-04T11:21:53;13.80;99.90
61916;DHT22;47868;51.326;6.550;2022-11-04T11:24:25;13.80;99.90
61916;DHT22;47868;51.326;6.550;2022-11-04T11:26:57;13.80;99.90
61916;DHT22;47868;51.326;6.550;2022-11-04T11:29:30;13.80;99.90
61916;DHT22;47868;51.326;6.550;2022-11-04T11:31:57;13.70;99.90
61916;DHT22;47868;51.326;6.550;2022-11-04T11:34:29;13.70;99.90
61916;DHT22;47868;51.326;6.550;2022-11-04T11:36:56;13.70;99.90
61916;DHT22;47868;51.326;6.550;2022-11-04T11:39:25;13.80;99.90
61916;DHT22;47868;51.326;6.550;2022-11-04T11:42:02;13.90;99.90
61916;DHT22;47868;51.326;6.550;2022-11-04T11:44:38;14.00;99.90
61916;DHT22;47868;51.326;6.550;2022-11-04T11:50:16;14.20;99.90
61916;DHT22;47868;51.326;6.550;2022-11-04T11:52:43;14.30;99.90
61916;DHT22;47868;51.326;6.550;2022-11-04T11:55:27;14.30;99.90
61916;DHT22;47868;51.326;6.550;2022-11-04T12:00:31;14.40;99.90
61916;DHT22;47868;51.326;6.550;2022-11-04T12:11:22;14.00;99.90
61916;DHT22;47868;51.326;6.550;2022-11-04T12:13:54;13.80;99.90
61916;DHT22;47868;51.326;6.550;2022-11-04T12:30:24;13.70;99.90
61916;DHT22;47868;51.326;6.550;2022-11-04T12:33:11;13.90;99.90
61916;DHT22;47868;51.326;6.550;2022-11-04T12:38:59;14.20;99.90
61916;DHT22;47868;51.326;6.550;2022-11-04T12:41:30;14.30;99.90
61916;DHT22;47868;51.326;6.550;2022-11-04T12:50:05;14.80;99.90
61916;DHT22;47868;51.326;6.550;2022-11-04T13:01:12;15.30;99.90
61916;DHT22;47868;51.326;6.550;2022-11-04T13:03:58;15.20;99.90
61916;DHT22;47868;51.326;6.550;2022-11-04T13:07:01;15.30;99.90
61916;DHT22;47868;51.326;6.550;2022-11-04T13:09:31;15.50;99.90
61916;DHT22;47868;51.326;6.550;2022-11-04T13:12:08;15.30;99.90
61916;DHT22;47868;51.326;6.550;2022-11-04T13:14:43;15.30;99.90
61916;DHT22;47868;51.326;6.550;2022-11-04T13:17:18;15.40;99.90
61916;DHT22;47868;51.326;6.550;2022-11-04T13:19:57;15.40;99.90
61916;DHT22;47868;51.326;6.550;2022-11-04T13:22:30;15.30;99.90
61916;DHT22;47868;51.326;6.550;2022-11-04T13:25:03;15.50;99.90
61916;DHT22;47868;51.326;6.550;2022-11-04T13:27:42;15.50;99.90
61916;DHT22;47868;51.326;6.550;2022-11-04T13:30:21;15.40;99.90
61916;DHT22;47868;51.326;6.550;2022-11-04T13:35:43;15.30;99.90
61916;DHT22;47868;51.326;6.550;2022-11-04T13:38:16;15.10;99.90
61916;DHT22;47868;51.326;6.550;2022-11-04T13:44:02;14.80;99.90
61916;DHT22;47868;51.326;6.550;2022-11-04T13:46:32;14.70;99.90
61916;DHT22;47868;51.326;6.550;2022-11-04T13:49:04;14.70;99.90
61916;DHT22;47868;51.326;6.550;2022-11-04T13:51:42;14.50;99.90
61916;DHT22;47868;51.326;6.550;2022-11-04T13:54:32;14.40;99.90
61916;DHT22;47868;51.326;6.550;2022-11-04T13:57:15;14.20;99.90
61916;DHT22;47868;51.326;6.550;2022-11-04T13:59:42;14.20;99.90
61916;DHT22;47868;51.326;6.550;2022-11-04T14:16:02;13.90;99.90
61916;DHT22;47868;51.326;6.550;2022-11-04T14:18:33;13.90;99.90
61916;DHT22;47868;51.326;6.550;2022-11-04T14:21:09;13.70;99.90
61916;DHT22;47868;51.326;6.550;2022-11-04T14:23:37;13.60;99.90
61916;DHT22;47868;51.326;6.550;2022-11-04T14:26:06;13.60;99.90
61916;DHT22;47868;51.326;6.550;2022-11-04T14:28:32;13.70;99.90
61916;DHT22;47868;51.326;6.550;2022-11-04T14:31:01;13.70;99.90
61916;DHT22;47868;51.326;6.550;2022-11-04T14:33:35;13.70;99.90
61916;DHT22;47868;51.326;6.550;2022-11-04T14:43:54;13.70;99.90
61916;DHT22;47868;51.326;6.550;2022-11-04T14:46:22;13.70;99.90
61916;DHT22;47868;51.326;6.550;2022-11-04T14:48:54;13.60;99.90
61916;DHT22;47868;51.326;6.550;2022-11-04T14:51:27;13.60;99.90
61916;DHT22;47868;51.326;6.550;2022-11-04T14:53:58;13.40;99.90
61916;DHT22;47868;51.326;6.550;2022-11-04T14:56:27;13.40;99.90
61916;DHT22;47868;51.326;6.550;2022-11-04T15:01:21;13.30;99.90
61916;DHT22;47868;51.326;6.550;2022-11-04T15:03:52;13.20;99.90
61916;DHT22;47868;51.326;6.550;2022-11-04T15:06:26;13.20;99.90
61916;DHT22;47868;51.326;6.550;2022-11-04T15:08:54;13.10;99.90
61916;DHT22;47868;51.326;6.550;2022-11-04T15:11:23;13.10;99.90
61916;DHT22;47868;51.326;6.550;2022-11-04T15:14:26;13.00;99.90
61916;DHT22;47868;51.326;6.550;2022-11-04T15:16:54;12.90;99.90
61916;DHT22;47868;51.326;6.550;2022-11-04T15:19:30;12.90;99.90
61916;DHT22;47868;51.326;6.550;2022-11-04T15:21:57;12.90;99.90
61916;DHT22;47868;51.326;6.550;2022-11-04T15:24:24;12.90;99.90
61916;DHT22;47868;51.326;6.550;2022-11-04T15:26:51;12.90;99.90
61916;DHT22;47868;51.326;6.550;2022-11-04T15:29:19;12.80;99.90
61916;DHT22;47868;51.326;6.550;2022-11-04T15:31:58;12.80;99.90
61916;DHT22;47868;51.326;6.550;2022-11-04T15:34:24;12.70;99.90
61916;DHT22;47868;51.326;6.550;2022-11-04T15:36:52;12.70;99.90
61916;DHT22;47868;51.326;6.550;2022-11-04T15:41:45;12.60;99.90
61916;DHT22;47868;51.326;6.550;2022-11-04T15:44:32;12.70;99.90
61916;DHT22;47868;51.326;6.550;2022-11-04T15:47:19;12.70;99.90
61916;DHT22;47868;51.326;6.550;2022-11-04T15:49:46;12.70;99.90
61916;DHT22;47868;51.326;6.550;2022-11-04T15:52:21;12.70;99.90
61916;DHT22;47868;51.326;6.550;2022-11-04T15:54:50;12.70;99.90
61916;DHT22;47868;51.326;6.550;2022-11-04T15:57:23;12.60;99.90
61916;DHT22;47868;51.326;6.550;2022-11-04T15:59:55;12.60;99.90
61916;DHT22;47868;51.326;6.550;2022-11-04T16:02:34;12.50;99.90
61916;DHT22;47868;51.326;6.550;2022-11-04T16:07:38;12.40;99.90
61916;DHT22;47868;51.326;6.550;2022-11-04T16:10:28;12.40;99.90
61916;DHT22;47868;51.326;6.550;2022-11-04T16:18:43;12.40;99.90
61916;DHT22;47868;51.326;6.550;2022-11-04T16:21:29;12.40;99.90
61916;DHT22;47868;51.326;6.550;2022-11-04T16:24:01;12.40;99.90
61916;DHT22;47868;51.326;6.550;2022-11-04T16:26:34;12.30;99.90
61916;DHT22;47868;51.326;6.550;2022-11-04T16:29:09;12.30;99.90
61916;DHT22;47868;51.326;6.550;2022-11-04T16:31:37;12.30;99.90
61916;DHT22;47868;51.326;6.550;2022-11-04T16:34:04;12.30;99.90
61916;DHT22;47868;51.326;6.550;2022-11-04T16:36:30;12.30;99.90
61916;DHT22;47868;51.326;6.550;2022-11-04T16:38:56;12.30;99.90
61916;DHT22;47868;51.326;6.550;2022-11-04T16:41:24;12.30;99.90
61916;DHT22;47868;51.326;6.550;2022-11-04T16:43:50;12.30;99.90
61916;DHT22;47868;51.326;6.550;2022-11-04T16:46:17;12.30;99.90
61916;DHT22;47868;51.326;6.550;2022-11-04T16:48:43;12.30;99.90
61916;DHT22;47868;51.326;6.550;2022-11-04T16:51:19;12.30;99.90
61916;DHT22;47868;51.326;6.550;2022-11-04T16:53:50;12.20;99.90
61916;DHT22;47868;51.326;6.550;2022-11-04T16:56:17;12.20;99.90
61916;DHT22;47868;51.326;6.550;2022-11-04T16:58:43;12.30;99.90
61916;DHT22;47868;51.326;6.550;2022-11-04T17:01:13;12.20;99.90
61916;DHT22;47868;51.326;6.550;2022-11-04T17:03:40;12.30;99.90
61916;DHT22;47868;51.326;6.550;2022-11-04T17:06:08;12.20;99.90
61916;DHT22;47868;51.326;6.550;2022-11-04T17:08:34;12.30;99.90
61916;DHT22;47868;51.326;6.550;2022-11-04T17:10:59;12.30;99.90
61916;DHT22;47868;51.326;6.550;2022-11-04T17:13:25;12.30;99.90
61916;DHT22;47868;51.326;6.550;2022-11-04T17:15:51;12.20;99.90
61916;DHT22;47868;51.326;6.550;2022-11-04T17:18:17;12.20;99.90
61916;DHT22;47868;51.326;6.550;2022-11-04T17:20:52;12.20;99.90
61916;DHT22;47868;51.326;6.550;2022-11-04T17:23:18;12.10;99.90
61916;DHT22;47868;51.326;6.550;2022-11-04T17:25:44;12.10;99.90
61916;DHT22;47868;51.326;6.550;2022-11-04T17:28:10;12.10;99.90
61916;DHT22;47868;51.326;6.550;2022-11-04T17:30:36;12.10;99.90
61916;DHT22;47868;51.326;6.550;2022-11-04T17:33:02;12.10;99.90
61916;DHT22;47868;51.326;6.550;2022-11-04T17:35:33;12.70;99.90
61916;DHT22;47868;51.326;6.550;2022-11-04T17:37:59;12.00;99.90
61916;DHT22;47868;51.326;6.550;2022-11-04T17:40:25;12.10;99.90
61916;DHT22;47868;51.326;6.550;2022-11-04T17:42:51;12.00;99.90
61916;DHT22;47868;51.326;6.550;2022-11-04T17:45:35;12.10;99.90
61916;DHT22;47868;51.326;6.550;2022-11-04T17:48:04;12.10;99.90
61916;DHT22;47868;51.326;6.550;2022-11-04T17:50:31;12.00;99.90
61916;DHT22;47868;51.326;6.550;2022-11-04T17:52:57;12.00;99.90
61916;DHT22;47868;51.326;6.550;2022-11-04T17:55:23;12.00;99.90
61916;DHT22;47868;51.326;6.550;2022-11-04T17:57:48;12.00;99.90
61916;DHT22;47868;51.326;6.550;2022-11-04T18:00:14;12.00;99.90
61916;DHT22;47868;51.326;6.550;2022-11-04T18:02:40;12.00;99.90
61916;DHT22;47868;51.326;6.550;2022-11-04T18:05:06;11.90;99.90
61916;DHT22;47868;51.326;6.550;2022-11-04T18:07:32;11.90;99.90
61916;DHT22;47868;51.326;6.550;2022-11-04T18:09:58;11.90;99.90
61916;DHT22;47868;51.326;6.550;2022-11-04T18:12:24;11.90;99.90
61916;DHT22;47868;51.326;6.550;2022-11-04T18:17:39;11.90;99.90
61916;DHT22;47868;51.326;6.550;2022-11-04T18:20:06;11.90;99.90
61916;DHT22;47868;51.326;6.550;2022-11-04T18:22:34;11.90;99.90
61916;DHT22;47868;51.326;6.550;2022-11-04T18:25:00;11.90;99.90
61916;DHT22;47868;51.326;6.550;2022-11-04T18:27:26;11.90;99.90